sensor_id;sensor_type;location;lat;lon;timestamp;temperature;humidity
19037;DHT22;9651;49.138;8.900;2023-12-14T00:01:54;7.00;99.90
19037;DHT22;9651;49.138;8.900;2023-12-14T00:05:56;7.10;99.90
19037;DHT22;9651;49.138;8.900;2023-12-14T00:09:58;7.10;99.90
19037;DHT22;9651;49.138;8.900;2023-12-14T00:14:01;7.10;99.90
19037;DHT22;9651;49.138;8.900;2023-12-14T00:18:03;7.10;99.90
19037;DHT22;9651;49.138;8.900;2023-12-14T00:22:06;7.10;99.90
19037;DHT22;9651;49.138;8.900;2023-12-14T00:26:08;7.20;99.90
19037;DHT22;9651;49.138;8.900;2023-12-14T00:30:12;7.20;99.90
19037;DHT22;9651;49.138;8.900;2023-12-14T00:34:14;7.20;99.90
19037;DHT22;9651;49.138;8.900;2023-12-14T00:38:16;7.30;99.90
19037;DHT22;9651;49.138;8.900;2023-12-14T00:42:18;7.30;99.90
19037;DHT22;9651;49.138;8.900;2023-12-14T00:46:21;7.30;99.90
19037;DHT22;9651;49.138;8.900;2023-12-14T00:50:24;7.30;99.90
19037;DHT22;9651;49.138;8.900;2023-12-14T00:54:25;7.40;99.90
19037;DHT22;9651;49.138;8.900;2023-12-14T00:58:27;7.30;99.90
19037;DHT22;9651;49.138;8.900;2023-12-14T01:02:30;7.40;99.90
19037;DHT22;9651;49.138;8.900;2023-12-14T01:06:33;7.30;99.90
19037;DHT22;9651;49.138;8.900;2023-12-14T01:10:35;7.40;99.90
19037;DHT22;9651;49.138;8.900;2023-12-14T01:14:37;7.40;99.90
19037;DHT22;9651;49.138;8.900;2023-12-14T01:18:40;7.40;99.90
19037;DHT22;9651;49.138;8.900;2023-12-14T01:22:42;7.40;99.90
19037;DHT22;9651;49.138;8.900;2023-12-14T01:26:44;7.40;99.90
19037;DHT22;9651;49.138;8.900;2023-12-14T01:30:46;7.40;99.90
19037;DHT22;9651;49.138;8.900;2023-12-14T01:34:49;7.40;99.90
19037;DHT22;9651;49.138;8.900;2023-12-14T01:38:51;7.40;99.90
19037;DHT22;9651;49.138;8.900;2023-12-14T01:42:53;7.30;99.90
19037;DHT22;9651;49.138;8.900;2023-12-14T01:46:55;7.30;99.90
19037;DHT22;9651;49.138;8.900;2023-12-14T01:50:58;7.30;99.90
19037;DHT22;9651;49.138;8.900;2023-12-14T01:55:00;7.40;99.90
19037;DHT22;9651;49.138;8.900;2023-12-14T01:59:03;7.40;99.90
19037;DHT22;9651;49.138;8.900;2023-12-14T02:03:05;7.40;99.90
19037;DHT22;9651;49.138;8.900;2023-12-14T02:07:09;7.40;99.90
19037;DHT22;9651;49.138;8.900;2023-12-14T02:11:11;7.40;99.90
19037;DHT22;9651;49.138;8.900;2023-12-14T02:15:13;7.50;99.90
19037;DHT22;9651;49.138;8.900;2023-12-14T02:19:15;7.40;99.90
19037;DHT22;9651;49.138;8.900;2023-12-14T02:23:18;7.50;99.90
19037;DHT22;9651;49.138;8.900;2023-12-14T02:27:20;7.50;99.90
19037;DHT22;9651;49.138;8.900;2023-12-14T02:31:22;7.50;99.90
19037;DHT22;9651;49.138;8.900;2023-12-14T02:35:24;7.50;99.90
19037;DHT22;9651;49.138;8.900;2023-12-14T02:39:27;7.50;99.90
19037;DHT22;9651;49.138;8.900;2023-12-14T02:43:29;7.50;99.90
19037;DHT22;9651;49.138;8.900;2023-12-14T02:47:31;7.60;99.90
19037;DHT22;9651;49.138;8.900;2023-12-14T02:51:33;7.60;99.90
19037;DHT22;9651;49.138;8.900;2023-12-14T02:55:36;7.60;99.90
19037;DHT22;9651;49.138;8.900;2023-12-14T02:59:38;7.60;99.90
19037;DHT22;9651;49.138;8.900;2023-12-14T03:03:40;7.60;99.90
19037;DHT22;9651;49.138;8.900;2023-12-14T03:07:42;7.50;99.90
19037;DHT22;9651;49.138;8.900;2023-12-14T03:11:45;7.50;99.90
19037;DHT22;9651;49.138;8.900;2023-12-14T03:15:47;7.60;99.90
19037;DHT22;9651;49.138;8.900;2023-12-14T03:19:50;7.60;99.90
19037;DHT22;9651;49.138;8.900;2023-12-14T03:23:52;7.50;99.90
19037;DHT22;9651;49.138;8.900;2023-12-14T03:27:55;7.60;99.90
19037;DHT22;9651;49.138;8.900;2023-12-14T03:31:57;7.50;99.90
19037;DHT22;9651;49.138;8.900;2023-12-14T03:35:59;7.60;99.90
19037;DHT22;9651;49.138;8.900;2023-12-14T03:40:01;7.60;99.90
19037;DHT22;9651;49.138;8.900;2023-12-14T03:44:05;7.70;99.90
19037;DHT22;9651;49.138;8.900;2023-12-14T03:48:07;7.70;99.90
19037;DHT22;9651;49.138;8.900;2023-12-14T03:52:09;7.60;99.90
19037;DHT22;9651;49.138;8.900;2023-12-14T03:56:11;7.60;99.90
19037;DHT22;9651;49.138;8.900;2023-12-14T04:00:15;7.50;99.90
19037;DHT22;9651;49.138;8.900;2023-12-14T04:04:17;7.50;99.90
19037;DHT22;9651;49.138;8.900;2023-12-14T04:08:19;7.50;99.90
19037;DHT22;9651;49.138;8.900;2023-12-14T04:12:21;7.50;99.90
19037;DHT22;9651;49.138;8.900;2023-12-14T04:16:24;7.60;99.90
19037;DHT22;9651;49.138;8.900;2023-12-14T04:20:26;7.60;99.90
19037;DHT22;9651;49.138;8.900;2023-12-14T04:24:27;7.60;99.90
19037;DHT22;9651;49.138;8.900;2023-12-14T04:28:30;7.60;99.90
19037;DHT22;9651;49.138;8.900;2023-12-14T04:32:34;7.70;99.90
19037;DHT22;9651;49.138;8.900;2023-12-14T04:36:35;7.70;99.90
19037;DHT22;9651;49.138;8.900;2023-12-14T04:40:37;7.70;99.90
19037;DHT22;9651;49.138;8.900;2023-12-14T04:44:39;7.70;99.90
19037;DHT22;9651;49.138;8.900;2023-12-14T04:48:42;7.70;99.90
19037;DHT22;9651;49.138;8.900;2023-12-14T04:52:44;7.70;99.90
19037;DHT22;9651;49.138;8.900;2023-12-14T04:56:46;7.80;99.90
19037;DHT22;9651;49.138;8.900;2023-12-14T05:00:48;7.80;99.90
19037;DHT22;9651;49.138;8.900;2023-12-14T05:04:51;7.80;99.90
19037;DHT22;9651;49.138;8.900;2023-12-14T05:08:53;7.70;99.90
19037;DHT22;9651;49.138;8.900;2023-12-14T05:12:56;7.70;99.90
19037;DHT22;9651;49.138;8.900;2023-12-14T05:16:57;7.70;99.90
19037;DHT22;9651;49.138;8.900;2023-12-14T05:21:01;7.70;99.90
19037;DHT22;9651;49.138;8.900;2023-12-14T05:25:03;7.70;99.90
19037;DHT22;9651;49.138;8.900;2023-12-14T05:29:05;7.70;99.90
19037;DHT22;9651;49.138;8.900;2023-12-14T05:33:07;7.70;99.90
19037;DHT22;9651;49.138;8.900;2023-12-14T05:37:10;7.60;99.90
19037;DHT22;9651;49.138;8.900;2023-12-14T05:41:12;7.70;99.90
19037;DHT22;9651;49.138;8.900;2023-12-14T05:45:14;7.60;99.90
19037;DHT22;9651;49.138;8.900;2023-12-14T05:49:16;7.60;99.90
19037;DHT22;9651;49.138;8.900;2023-12-14T05:53:19;7.60;99.90
19037;DHT22;9651;49.138;8.900;2023-12-14T05:57:21;7.60;99.90
19037;DHT22;9651;49.138;8.900;2023-12-14T06:01:23;7.60;99.90
19037;DHT22;9651;49.138;8.900;2023-12-14T06:05:25;7.70;99.90
19037;DHT22;9651;49.138;8.900;2023-12-14T06:09:28;7.70;99.90
19037;DHT22;9651;49.138;8.900;2023-12-14T06:13:34;7.70;99.90
19037;DHT22;9651;49.138;8.900;2023-12-14T06:17:36;7.70;99.90
19037;DHT22;9651;49.138;8.900;2023-12-14T06:21:40;7.60;99.90
19037;DHT22;9651;49.138;8.900;2023-12-14T06:25:43;7.50;99.90
19037;DHT22;9651;49.138;8.900;2023-12-14T06:29:45;7.50;99.90
19037;DHT22;9651;49.138;8.900;2023-12-14T06:33:47;7.50;99.90
19037;DHT22;9651;49.138;8.900;2023-12-14T06:37:49;7.50;99.90
19037;DHT22;9651;49.138;8.900;2023-12-14T06:41:53;7.40;99.90
19037;DHT22;9651;49.138;8.900;2023-12-14T06:45:55;7.40;99.90
19037;DHT22;9651;49.138;8.900;2023-12-14T06:49:57;7.40;99.90
19037;DHT22;9651;49.138;8.900;2023-12-14T06:53:59;7.40;99.90
19037;DHT22;9651;49.138;8.900;2023-12-14T06:58:02;7.40;99.90
19037;DHT22;9651;49.138;8.900;2023-12-14T07:02:04;7.40;99.90
19037;DHT22;9651;49.138;8.900;2023-12-14T07:06:07;7.40;99.90
19037;DHT22;9651;49.138;8.900;2023-12-14T07:10:09;7.50;99.90
19037;DHT22;9651;49.138;8.900;2023-12-14T07:14:12;7.50;99.90
19037;DHT22;9651;49.138;8.900;2023-12-14T07:18:15;7.50;99.90
19037;DHT22;9651;49.138;8.900;2023-12-14T07:22:17;7.50;99.90
19037;DHT22;9651;49.138;8.900;2023-12-14T07:26:18;7.50;99.90
19037;DHT22;9651;49.138;8.900;2023-12-14T07:30:22;7.50;99.90
19037;DHT22;9651;49.138;8.900;2023-12-14T07:34:24;7.60;99.90
19037;DHT22;9651;49.138;8.900;2023-12-14T07:38:28;7.60;99.90
19037;DHT22;9651;49.138;8.900;2023-12-14T07:42:30;7.60;99.90
19037;DHT22;9651;49.138;8.900;2023-12-14T07:46:33;7.70;99.90
19037;DHT22;9651;49.138;8.900;2023-12-14T07:50:36;7.80;99.90
19037;DHT22;9651;49.138;8.900;2023-12-14T07:54:38;7.80;99.90
19037;DHT22;9651;49.138;8.900;2023-12-14T07:58:40;7.80;99.90
19037;DHT22;9651;49.138;8.900;2023-12-14T08:02:43;7.90;99.90
19037;DHT22;9651;49.138;8.900;2023-12-14T08:06:45;7.80;99.90
19037;DHT22;9651;49.138;8.900;2023-12-14T08:10:47;7.80;99.90
19037;DHT22;9651;49.138;8.900;2023-12-14T08:14:49;7.90;99.90
19037;DHT22;9651;49.138;8.900;2023-12-14T08:18:52;7.90;99.90
19037;DHT22;9651;49.138;8.900;2023-12-14T08:22:54;7.90;99.90
19037;DHT22;9651;49.138;8.900;2023-12-14T08:26:56;8.00;99.90
19037;DHT22;9651;49.138;8.900;2023-12-14T08:30:58;8.00;99.90
19037;DHT22;9651;49.138;8.900;2023-12-14T08:35:05;8.10;99.90
19037;DHT22;9651;49.138;8.900;2023-12-14T08:39:06;8.10;99.90
19037;DHT22;9651;49.138;8.900;2023-12-14T08:43:08;8.20;99.90
19037;DHT22;9651;49.138;8.900;2023-12-14T08:47:10;8.20;99.90
19037;DHT22;9651;49.138;8.900;2023-12-14T08:51:13;8.20;99.90
19037;DHT22;9651;49.138;8.900;2023-12-14T08:55:15;8.20;99.90
19037;DHT22;9651;49.138;8.900;2023-12-14T08:59:17;8.20;99.90
19037;DHT22;9651;49.138;8.900;2023-12-14T09:03:20;8.20;99.90
19037;DHT22;9651;49.138;8.900;2023-12-14T09:07:24;8.10;99.90
19037;DHT22;9651;49.138;8.900;2023-12-14T09:11:26;8.20;99.90
19037;DHT22;9651;49.138;8.900;2023-12-14T09:15:28;8.30;99.90
19037;DHT22;9651;49.138;8.900;2023-12-14T09:19:30;8.40;99.90
19037;DHT22;9651;49.138;8.900;2023-12-14T09:23:33;8.50;99.90
19037;DHT22;9651;49.138;8.900;2023-12-14T09:27:35;8.50;99.90
19037;DHT22;9651;49.138;8.900;2023-12-14T09:31:40;8.60;99.90
19037;DHT22;9651;49.138;8.900;2023-12-14T09:35:42;8.70;99.90
19037;DHT22;9651;49.138;8.900;2023-12-14T09:39:45;8.60;99.90
19037;DHT22;9651;49.138;8.900;2023-12-14T09:43:47;8.60;99.90
19037;DHT22;9651;49.138;8.900;2023-12-14T09:47:49;8.50;99.90
19037;DHT22;9651;49.138;8.900;2023-12-14T09:51:51;8.60;99.90
19037;DHT22;9651;49.138;8.900;2023-12-14T09:55:54;8.60;99.90
19037;DHT22;9651;49.138;8.900;2023-12-14T09:59:56;8.50;99.90
19037;DHT22;9651;49.138;8.900;2023-12-14T10:04:08;8.50;99.90
19037;DHT22;9651;49.138;8.900;2023-12-14T10:08:10;8.50;99.90
19037;DHT22;9651;49.138;8.900;2023-12-14T10:12:13;8.60;99.90
19037;DHT22;9651;49.138;8.900;2023-12-14T10:16:27;8.70;99.90
19037;DHT22;9651;49.138;8.900;2023-12-14T10:20:29;8.70;99.90
19037;DHT22;9651;49.138;8.900;2023-12-14T10:24:32;8.70;99.90
19037;DHT22;9651;49.138;8.900;2023-12-14T10:28:36;8.80;99.90
19037;DHT22;9651;49.138;8.900;2023-12-14T10:32:38;8.90;99.90
19037;DHT22;9651;49.138;8.900;2023-12-14T10:36:43;8.90;99.90
19037;DHT22;9651;49.138;8.900;2023-12-14T10:40:47;9.00;99.90
19037;DHT22;9651;49.138;8.900;2023-12-14T10:44:52;9.10;99.90
19037;DHT22;9651;49.138;8.900;2023-12-14T10:48:54;9.30;99.90
19037;DHT22;9651;49.138;8.900;2023-12-14T10:52:57;9.40;99.90
19037;DHT22;9651;49.138;8.900;2023-12-14T10:57:00;9.40;99.90
19037;DHT22;9651;49.138;8.900;2023-12-14T11:01:05;9.50;99.90
19037;DHT22;9651;49.138;8.900;2023-12-14T11:05:07;9.50;99.90
19037;DHT22;9651;49.138;8.900;2023-12-14T11:09:12;9.50;99.90
19037;DHT22;9651;49.138;8.900;2023-12-14T11:13:17;9.60;99.90
19037;DHT22;9651;49.138;8.900;2023-12-14T11:17:20;9.60;99.90
19037;DHT22;9651;49.138;8.900;2023-12-14T11:21:25;9.50;99.90
19037;DHT22;9651;49.138;8.900;2023-12-14T11:25:26;9.50;99.90
19037;DHT22;9651;49.138;8.900;2023-12-14T11:29:29;9.50;99.90
19037;DHT22;9651;49.138;8.900;2023-12-14T11:33:33;9.40;99.90
19037;DHT22;9651;49.138;8.900;2023-12-14T11:37:35;9.40;99.90
19037;DHT22;9651;49.138;8.900;2023-12-14T11:41:37;9.60;99.90
19037;DHT22;9651;49.138;8.900;2023-12-14T11:45:40;9.60;99.90
19037;DHT22;9651;49.138;8.900;2023-12-14T11:49:43;9.60;99.90
19037;DHT22;9651;49.138;8.900;2023-12-14T11:53:45;9.50;99.90
19037;DHT22;9651;49.138;8.900;2023-12-14T11:57:49;9.20;99.90
19037;DHT22;9651;49.138;8.900;2023-12-14T12:01:56;9.10;99.90
19037;DHT22;9651;49.138;8.900;2023-12-14T12:05:59;8.90;99.90
19037;DHT22;9651;49.138;8.900;2023-12-14T12:10:01;8.70;99.90
19037;DHT22;9651;49.138;8.900;2023-12-14T12:14:05;8.70;99.90
19037;DHT22;9651;49.138;8.900;2023-12-14T12:18:08;8.50;99.90
19037;DHT22;9651;49.138;8.900;2023-12-14T12:22:11;8.50;99.90
19037;DHT22;9651;49.138;8.900;2023-12-14T12:26:13;8.50;99.90
19037;DHT22;9651;49.138;8.900;2023-12-14T12:30:15;8.50;99.90
19037;DHT22;9651;49.138;8.900;2023-12-14T12:34:17;8.60;99.90
19037;DHT22;9651;49.138;8.900;2023-12-14T12:38:21;8.70;99.90
19037;DHT22;9651;49.138;8.900;2023-12-14T12:42:23;8.80;99.90
19037;DHT22;9651;49.138;8.900;2023-12-14T12:46:26;8.90;99.90
19037;DHT22;9651;49.138;8.900;2023-12-14T12:50:27;8.90;99.90
19037;DHT22;9651;49.138;8.900;2023-12-14T12:54:32;8.90;99.90
19037;DHT22;9651;49.138;8.900;2023-12-14T12:58:34;8.90;99.90
19037;DHT22;9651;49.138;8.900;2023-12-14T13:02:36;8.90;99.90
19037;DHT22;9651;49.138;8.900;2023-12-14T13:06:38;8.70;99.90
19037;DHT22;9651;49.138;8.900;2023-12-14T13:10:41;8.70;99.90
19037;DHT22;9651;49.138;8.900;2023-12-14T13:14:44;8.70;99.90
19037;DHT22;9651;49.138;8.900;2023-12-14T13:18:46;8.70;99.90
19037;DHT22;9651;49.138;8.900;2023-12-14T13:22:48;8.60;99.90
19037;DHT22;9651;49.138;8.900;2023-12-14T13:26:51;8.60;99.90
19037;DHT22;9651;49.138;8.900;2023-12-14T13:30:53;8.60;99.90
19037;DHT22;9651;49.138;8.900;2023-12-14T13:34:55;8.70;99.90
19037;DHT22;9651;49.138;8.900;2023-12-14T13:38:57;8.70;99.90
19037;DHT22;9651;49.138;8.900;2023-12-14T13:43:00;8.70;99.90
19037;DHT22;9651;49.138;8.900;2023-12-14T13:47:10;8.70;99.90
19037;DHT22;9651;49.138;8.900;2023-12-14T13:51:12;8.70;99.90
19037;DHT22;9651;49.138;8.900;2023-12-14T13:55:15;8.70;99.90
19037;DHT22;9651;49.138;8.900;2023-12-14T13:59:18;8.70;99.90
19037;DHT22;9651;49.138;8.900;2023-12-14T14:03:20;8.60;99.90
19037;DHT22;9651;49.138;8.900;2023-12-14T14:07:22;8.60;99.90
19037;DHT22;9651;49.138;8.900;2023-12-14T14:11:24;8.60;99.90
19037;DHT22;9651;49.138;8.900;2023-12-14T14:15:27;8.60;99.90
19037;DHT22;9651;49.138;8.900;2023-12-14T14:19:29;8.60;99.90
19037;DHT22;9651;49.138;8.900;2023-12-14T14:23:31;8.60;99.90
19037;DHT22;9651;49.138;8.900;2023-12-14T14:27:33;8.60;99.90
19037;DHT22;9651;49.138;8.900;2023-12-14T14:31:36;8.60;99.90
19037;DHT22;9651;49.138;8.900;2023-12-14T14:35:38;8.60;99.90
19037;DHT22;9651;49.138;8.900;2023-12-14T14:39:40;8.60;99.90
19037;DHT22;9651;49.138;8.900;2023-12-14T14:43:43;8.60;99.90
19037;DHT22;9651;49.138;8.900;2023-12-14T14:47:47;8.50;99.90
19037;DHT22;9651;49.138;8.900;2023-12-14T14:51:49;8.50;99.90
19037;DHT22;9651;49.138;8.900;2023-12-14T14:55:51;8.40;99.90
19037;DHT22;9651;49.138;8.900;2023-12-14T14:59:56;8.40;99.90
19037;DHT22;9651;49.138;8.900;2023-12-14T15:03:59;8.30;99.90
19037;DHT22;9651;49.138;8.900;2023-12-14T15:08:01;8.30;99.90
19037;DHT22;9651;49.138;8.900;2023-12-14T15:12:04;8.30;99.90
19037;DHT22;9651;49.138;8.900;2023-12-14T15:16:06;8.30;99.90
19037;DHT22;9651;49.138;8.900;2023-12-14T15:20:10;8.30;99.90
19037;DHT22;9651;49.138;8.900;2023-12-14T15:24:12;8.20;99.90
19037;DHT22;9651;49.138;8.900;2023-12-14T15:28:14;8.10;99.90
19037;DHT22;9651;49.138;8.900;2023-12-14T15:32:16;8.10;99.90
19037;DHT22;9651;49.138;8.900;2023-12-14T15:36:19;8.20;99.90
19037;DHT22;9651;49.138;8.900;2023-12-14T15:40:21;8.20;99.90
19037;DHT22;9651;49.138;8.900;2023-12-14T15:44:23;8.10;99.90
19037;DHT22;9651;49.138;8.900;2023-12-14T15:48:25;8.10;99.90
19037;DHT22;9651;49.138;8.900;2023-12-14T15:52:28;8.00;99.90
19037;DHT22;9651;49.138;8.900;2023-12-14T15:56:30;8.00;99.90
19037;DHT22;9651;49.138;8.900;2023-12-14T16:00:32;7.90;99.90
19037;DHT22;9651;49.138;8.900;2023-12-14T16:04:35;7.90;99.90
19037;DHT22;9651;49.138;8.900;2023-12-14T16:08:38;7.90;99.90
19037;DHT22;9651;49.138;8.900;2023-12-14T16:12:40;7.90;99.90
19037;DHT22;9651;49.138;8.900;2023-12-14T16:16:41;7.90;99.90
19037;DHT22;9651;49.138;8.900;2023-12-14T16:20:43;7.90;99.90
19037;DHT22;9651;49.138;8.900;2023-12-14T16:24:49;7.80;99.90
19037;DHT22;9651;49.138;8.900;2023-12-14T16:28:51;7.90;99.90
19037;DHT22;9651;49.138;8.900;2023-12-14T16:32:53;7.80;99.90
19037;DHT22;9651;49.138;8.900;2023-12-14T16:36:56;7.70;99.90
19037;DHT22;9651;49.138;8.900;2023-12-14T16:41:02;7.70;99.90
19037;DHT22;9651;49.138;8.900;2023-12-14T16:45:05;7.50;99.90
19037;DHT22;9651;49.138;8.900;2023-12-14T16:49:07;7.40;99.90
19037;DHT22;9651;49.138;8.900;2023-12-14T16:53:09;7.30;99.90
19037;DHT22;9651;49.138;8.900;2023-12-14T16:57:13;7.20;99.90
19037;DHT22;9651;49.138;8.900;2023-12-14T17:01:15;7.20;99.90
19037;DHT22;9651;49.138;8.900;2023-12-14T17:05:17;7.10;99.90
19037;DHT22;9651;49.138;8.900;2023-12-14T17:09:19;7.10;99.90
19037;DHT22;9651;49.138;8.900;2023-12-14T17:13:22;7.10;99.90
19037;DHT22;9651;49.138;8.900;2023-12-14T17:17:24;7.10;99.90
19037;DHT22;9651;49.138;8.900;2023-12-14T17:21:28;7.20;99.90
19037;DHT22;9651;49.138;8.900;2023-12-14T17:25:30;7.10;99.90
19037;DHT22;9651;49.138;8.900;2023-12-14T17:29:33;7.20;99.90
19037;DHT22;9651;49.138;8.900;2023-12-14T17:33:35;7.10;99.90
19037;DHT22;9651;49.138;8.900;2023-12-14T17:37:36;7.20;99.90
19037;DHT22;9651;49.138;8.900;2023-12-14T17:41:38;7.20;99.90
19037;DHT22;9651;49.138;8.900;2023-12-14T17:45:42;7.20;99.90
19037;DHT22;9651;49.138;8.900;2023-12-14T17:49:43;7.20;99.90
19037;DHT22;9651;49.138;8.900;2023-12-14T17:53:45;7.30;99.90
19037;DHT22;9651;49.138;8.900;2023-12-14T17:57:47;7.30;99.90
19037;DHT22;9651;49.138;8.900;2023-12-14T18:01:51;7.30;99.90
19037;DHT22;9651;49.138;8.900;2023-12-14T18:05:52;7.40;99.90
19037;DHT22;9651;49.138;8.900;2023-12-14T18:09:54;7.40;99.90
19037;DHT22;9651;49.138;8.900;2023-12-14T18:13:56;7.40;99.90
19037;DHT22;9651;49.138;8.900;2023-12-14T18:18:00;7.50;99.90
19037;DHT22;9651;49.138;8.900;2023-12-14T18:22:03;7.50;99.90
19037;DHT22;9651;49.138;8.900;2023-12-14T18:26:05;7.50;99.90
19037;DHT22;9651;49.138;8.900;2023-12-14T18:30:07;7.40;99.90
19037;DHT22;9651;49.138;8.900;2023-12-14T18:34:12;7.30;99.90
19037;DHT22;9651;49.138;8.900;2023-12-14T18:38:13;7.30;99.90
19037;DHT22;9651;49.138;8.900;2023-12-14T18:42:15;7.30;99.90
19037;DHT22;9651;49.138;8.900;2023-12-14T18:46:17;7.20;99.90
19037;DHT22;9651;49.138;8.900;2023-12-14T18:50:20;7.20;99.90
19037;DHT22;9651;49.138;8.900;2023-12-14T18:54:22;7.20;99.90
19037;DHT22;9651;49.138;8.900;2023-12-14T18:58:24;7.20;99.90
19037;DHT22;9651;49.138;8.900;2023-12-14T19:02:26;7.20;99.90
19037;DHT22;9651;49.138;8.900;2023-12-14T19:06:30;7.10;99.90
19037;DHT22;9651;49.138;8.900;2023-12-14T19:10:33;7.10;99.90
19037;DHT22;9651;49.138;8.900;2023-12-14T19:14:34;7.10;99.90
19037;DHT22;9651;49.138;8.900;2023-12-14T19:18:36;7.00;99.90
19037;DHT22;9651;49.138;8.900;2023-12-14T19:22:40;7.00;99.90
19037;DHT22;9651;49.138;8.900;2023-12-14T19:26:42;7.00;99.90
19037;DHT22;9651;49.138;8.900;2023-12-14T19:30:44;7.00;99.90
19037;DHT22;9651;49.138;8.900;2023-12-14T19:34:46;7.00;99.90
19037;DHT22;9651;49.138;8.900;2023-12-14T19:38:49;6.90;99.90
19037;DHT22;9651;49.138;8.900;2023-12-14T19:42:51;6.90;99.90
19037;DHT22;9651;49.138;8.900;2023-12-14T19:46:53;6.90;99.90
19037;DHT22;9651;49.138;8.900;2023-12-14T19:50:55;6.90;99.90
19037;DHT22;9651;49.138;8.900;2023-12-14T19:54:59;6.90;99.90
19037;DHT22;9651;49.138;8.900;2023-12-14T19:59:03;6.90;99.90
19037;DHT22;9651;49.138;8.900;2023-12-14T20:03:05;6.90;99.90
19037;DHT22;9651;49.138;8.900;2023-12-14T20:07:07;6.90;99.90
19037;DHT22;9651;49.138;8.900;2023-12-14T20:11:16;6.80;99.90
19037;DHT22;9651;49.138;8.900;2023-12-14T20:15:18;6.80;99.90
19037;DHT22;9651;49.138;8.900;2023-12-14T20:19:20;6.80;99.90
19037;DHT22;9651;49.138;8.900;2023-12-14T20:23:22;6.90;99.90
19037;DHT22;9651;49.138;8.900;2023-12-14T20:27:26;6.90;99.90
19037;DHT22;9651;49.138;8.900;2023-12-14T20:31:28;6.90;99.90
19037;DHT22;9651;49.138;8.900;2023-12-14T20:35:29;6.90;99.90
19037;DHT22;9651;49.138;8.900;2023-12-14T20:39:31;6.90;99.90
19037;DHT22;9651;49.138;8.900;2023-12-14T20:43:35;6.80;99.90
19037;DHT22;9651;49.138;8.900;2023-12-14T20:47:39;6.80;99.90
19037;DHT22;9651;49.138;8.900;2023-12-14T20:51:41;6.80;99.90
19037;DHT22;9651;49.138;8.900;2023-12-14T20:55:43;6.70;99.90
19037;DHT22;9651;49.138;8.900;2023-12-14T20:59:46;6.70;99.90
19037;DHT22;9651;49.138;8.900;2023-12-14T21:03:48;6.70;99.90
19037;DHT22;9651;49.138;8.900;2023-12-14T21:07:51;6.70;99.90
19037;DHT22;9651;49.138;8.900;2023-12-14T21:11:53;6.60;99.90
19037;DHT22;9651;49.138;8.900;2023-12-14T21:15:56;6.50;99.90
19037;DHT22;9651;49.138;8.900;2023-12-14T21:19:58;6.60;99.90
19037;DHT22;9651;49.138;8.900;2023-12-14T21:24:00;6.60;99.90
19037;DHT22;9651;49.138;8.900;2023-12-14T21:28:02;6.50;99.90
19037;DHT22;9651;49.138;8.900;2023-12-14T21:32:06;6.50;99.90
19037;DHT22;9651;49.138;8.900;2023-12-14T21:36:09;6.50;99.90
19037;DHT22;9651;49.138;8.900;2023-12-14T21:40:12;6.50;99.90
19037;DHT22;9651;49.138;8.900;2023-12-14T21:44:15;6.50;99.90
19037;DHT22;9651;49.138;8.900;2023-12-14T21:48:18;6.50;99.90
19037;DHT22;9651;49.138;8.900;2023-12-14T21:52:20;6.60;99.90
19037;DHT22;9651;49.138;8.900;2023-12-14T21:56:22;6.60;99.90
19037;DHT22;9651;49.138;8.900;2023-12-14T22:00:24;6.50;99.90
19037;DHT22;9651;49.138;8.900;2023-12-14T22:04:27;6.50;99.90
19037;DHT22;9651;49.138;8.900;2023-12-14T22:08:29;6.40;99.90
19037;DHT22;9651;49.138;8.900;2023-12-14T22:12:31;6.40;99.90
19037;DHT22;9651;49.138;8.900;2023-12-14T22:16:33;6.40;99.90
19037;DHT22;9651;49.138;8.900;2023-12-14T22:20:36;6.50;99.90
19037;DHT22;9651;49.138;8.900;2023-12-14T22:24:38;6.50;99.90
19037;DHT22;9651;49.138;8.900;2023-12-14T22:28:40;6.40;99.90
19037;DHT22;9651;49.138;8.900;2023-12-14T22:32:42;6.30;99.90
19037;DHT22;9651;49.138;8.900;2023-12-14T22:36:45;6.30;99.90
19037;DHT22;9651;49.138;8.900;2023-12-14T22:40:47;6.30;99.90
19037;DHT22;9651;49.138;8.900;2023-12-14T22:44:49;6.20;99.90
19037;DHT22;9651;49.138;8.900;2023-12-14T22:48:51;6.10;99.90
19037;DHT22;9651;49.138;8.900;2023-12-14T22:52:54;6.00;99.90
19037;DHT22;9651;49.138;8.900;2023-12-14T22:56:56;6.00;99.90
19037;DHT22;9651;49.138;8.900;2023-12-14T23:00:58;5.90;99.90
19037;DHT22;9651;49.138;8.900;2023-12-14T23:04:59;5.90;99.90
19037;DHT22;9651;49.138;8.900;2023-12-14T23:09:03;5.90;99.90
19037;DHT22;9651;49.138;8.900;2023-12-14T23:13:06;5.90;99.90
19037;DHT22;9651;49.138;8.900;2023-12-14T23:17:07;5.80;99.90
19037;DHT22;9651;49.138;8.900;2023-12-14T23:21:09;5.90;99.90
19037;DHT22;9651;49.138;8.900;2023-12-14T23:25:13;5.90;99.90
19037;DHT22;9651;49.138;8.900;2023-12-14T23:29:14;5.90;99.90
19037;DHT22;9651;49.138;8.900;2023-12-14T23:33:17;5.90;99.90
19037;DHT22;9651;49.138;8.900;2023-12-14T23:37:18;5.90;99.90
19037;DHT22;9651;49.138;8.900;2023-12-14T23:41:22;5.90;99.90
19037;DHT22;9651;49.138;8.900;2023-12-14T23:45:23;5.90;99.90
19037;DHT22;9651;49.138;8.900;2023-12-14T23:49:25;5.90;99.90
19037;DHT22;9651;49.138;8.900;2023-12-14T23:53:27;5.80;99.90
19037;DHT22;9651;49.138;8.900;2023-12-14T23:57:30;5.80;99.90
